Aviation Digital Data Service (ADDS)

Output produced by METARs form (1937 UTC 18 June 2019)
found at http://www.aviationweather.gov/metar/data/
 
KIYA 181915Z AUTO 27006KT 10SM SCT036 SCT043 SCT050 32/22 A2991 RMK AO2 T03160224
KAEX 181853Z VRB04KT 10SM FEW070 31/22 A2989 RMK AO2 SLP125 T03060222
KAEX 181720Z 1818/1918 25007KT P6SM SCT035 
     FM190100 VRB03KT P6SM FEW015 
     TEMPO 1909/1913 2SM BR BKN015 
     FM191500 19009KT P6SM SCT025 BKN035
       
KESF 181853Z AUTO VRB04KT 10SM BKN090 32/22 A2991 RMK AO2 SLP127 T03170222
KBQP 181915Z AUTO 28010KT 10SM SCT046 SCT050 SCT060 31/20 A2990 RMK AO2 T03130203
KBTR 181928Z 31006KT 10SM BKN045 32/22 A2990 RMK AO2 T03170222
KBTR 181730Z 1818/1918 25004KT P6SM BKN027 
     TEMPO 1820/1824 P6SM -TSRA BKN050CB 
     FM190100 22004KT P6SM OVC050 
     FM191100 VRB03KT P6SM SCT080 
     FM191200 VRB03KT P6SM BKN015 
     FM191300 VRB04KT P6SM BKN035 
     FM191400 22006KT P6SM BKN025
       
K5R8 181915Z AUTO 00000KT 10SM BKN040 BKN047 BKN050 31/21 A2992 RMK AO2 T03090209
KDRI 181915Z AUTO 25004KT 10SM CLR 31/19 A2994 RMK AO2 T03130192
KGAO 181915Z AUTO 21008KT 10SM CLR 28/23 A2993 RMK AO2 LTG DSNT NE T02750233
KHDC 181915Z AUTO 16003KT 10SM SCT035 BKN041 OVC085 31/25 A2991 RMK AO2 LTG DSNT SE
KHDC 181730Z 1818/1918 33008KT P6SM BKN027 BKN035 OVC100 
     TEMPO 1818/1822 VRB14G25KT 2SM TSRA BR BKN050CB 
     FM182200 21004KT P6SM SCT250 
     FM190000 VRB04KT P6SM FEW110 
     FM191200 00000KT P6SM BKN035 
     FM191500 22006KT P6SM SCT110
       
KHUM 181847Z 24006KT 7SM SCT017 29/25 A2993
KHUM 181730Z 1818/1918 00000KT P6SM SCT013 BKN040 
     TEMPO 1818/1822 VRB15G25KT 2SM TSRA BR BKN025CB 
     FM190000 20003KT P6SM FEW250 
     FM190200 VRB04KT P6SM FEW110 
     FM191500 22006KT P6SM SCT110
       
K3R7 181915Z AUTO 29007KT 10SM SCT044 32/22 A2992 RMK AO2 T03150221
KLFT 181853Z 31005KT 10SM FEW040 32/22 A2992 RMK AO2 SLP130 T03170222
KLFT 181720Z 1818/1918 23009KT P6SM VCTS SCT035CB 
     FM190100 21004KT P6SM SCT025 
     TEMPO 1909/1913 00000KT 4SM BR 
     FM191500 21010KT P6SM SCT025 BKN035
       
KCWF 181855Z VRB06KT 10SM BKN037 BKN043 31/22 A2994
KLCH 181853Z 32006KT 10SM FEW039 33/23 A2991 RMK AO2 SLP137 T03280228 $
KLCH 181720Z 1818/1918 24009KT P6SM SCT035 
     FM190100 21004KT P6SM SCT025 
     TEMPO 1909/1913 00000KT 4SM BR 
     FM191500 21011KT P6SM SCT025 BKN035
       
K3F3 181915Z AUTO 00000KT 10SM CLR 31/21 A2994 RMK AO2 T03070212
KMNE 181915Z AUTO 25006KT 10SM SCT044 SCT050 31/20 A2991 RMK AO2 T03100202
KMLU 181853Z 28011KT 10SM BKN047 32/21 A2990 RMK AO2 SLP122 T03170206
KMLU 181743Z 1818/1918 23006KT P6SM VCSH SCT040 BKN070 
     FM190100 VRB03KT P6SM SKC 
     FM191500 22008KT P6SM SCT030
       
KIER 181915Z AUTO 28006KT 10SM SCT043 32/22 A2991 RMK AO2 T03200216
KARA 181853Z 27006KT 10SM FEW040 FEW049 31/23 A2992 RMK AO2 SLP131 T03110228
KARA 181720Z 1818/1918 23010KT P6SM VCTS SCT035CB 
     FM190100 21004KT P6SM SCT025 
     TEMPO 1909/1913 00000KT 4SM BR 
     FM191500 21011KT P6SM SCT025 BKN035
       
KNEW 181853Z 21007KT 10SM FEW047 FEW060 27/23 A2993 RMK AO2 PK WND 24031/1754 LTG DSNT ALQDS RAE40 TSB20E35 SLP129 P0060 T02670233
KNEW 181730Z 1818/1918 22011KT P6SM SCT027 BKN030 BKN040 
     TEMPO 1818/1822 VRB14G25KT 2SM TSRA BR BKN025CB 
     FM190000 24008KT P6SM BKN100 
     FM191000 23006KT P6SM VCSH FEW100 
     FM191500 24007KT P6SM BKN110
       
KMSY 181853Z 21008KT 10SM FEW021 SCT030 BKN080 BKN250 29/24 A2992 RMK AO2 LTG DSNT N-SE RAE02 SLP135 CB DSNT ALQDS P0000 T02940244
KMSY 181730Z 1818/1924 23011G18KT P6SM BKN028 BKN070 BKN250 
     TEMPO 1818/1820 VRB15G27KT 2SM TSRA BR BKN020CB 
     FM190000 21005KT P6SM SCT250 
     FM191500 21008KT P6SM BKN045
       
KHZR 181915Z AUTO 29003KT 10SM CLR 31/22 A2991 RMK AO2
KACP 181915Z AUTO 00000KT 10SM SCT036 SCT042 BKN060 A2990 RMK AO2
KOPL 181915Z AUTO 28004KT 10SM SCT042 31/20 A2991 RMK AO2 T03140203
KPTN 181856Z AUTO 27009KT 10SM CLR 31/23 A2993 RMK AO2 SLP134 T03110233
KRSN 181915Z AUTO 31003KT 10SM BKN045 BKN055 BKN075 29/19 A2995 RMK AO2 T02900192
KDTN 181853Z 04004KT 10SM BKN048 BKN060 32/20 A2990 RMK AO2 SLP123 T03170200
KSHV 181856Z 20004KT 10SM SCT044 SCT290 31/21 A2990 RMK AO2 SLP121 T03110206
KSHV 181743Z 1818/1918 27008KT P6SM SCT040 
     FM190100 VRB04KT P6SM SCT250 
     TEMPO 1912/1914 BKN020 
     FM191400 23012KT P6SM SCT030
       
KASD 181853Z AUTO 20011G22KT 10SM FEW028 SCT033 BKN055 29/22 A2992 RMK AO2 LTG DSNT S AND W SLP133 T02940222
KASD 181730Z 1818/1918 21003KT P6SM FEW035 BKN050 OVC070 
     TEMPO 1818/1821 P6SM -TSRA BKN050CB 
     FM182100 21006KT P6SM OVC050 
     FM190000 18003KT P6SM SCT250 
     FM191000 00000KT P6SM VCSH BKN100 
     FM191400 22005KT P6SM BKN110
       
KUXL 181915Z AUTO 22005KT 10SM SCT041 32/21 A2992 RMK AO2 T03200212
KTVR 181853Z AUTO 00000KT 10SM FEW037 29/23 A2990 RMK AO2 SLP131 T02940228
K0R4 181915Z AUTO 22003KT 10SM SCT037 SCT095 31/21 A2990 RMK AO2 T03130214